sensor_id;sensor_type;location;lat;lon;timestamp;P1;durP1;ratioP1;P2;durP2;ratioP2
20144;SDS011;10233;50.814;6.590;2023-08-30T00:00:09;11.40;;;5.40;;
20144;SDS011;10233;50.814;6.590;2023-08-30T00:01:11;9.88;;;5.45;;
20144;SDS011;10233;50.814;6.590;2023-08-30T00:02:11;8.77;;;5.17;;
20144;SDS011;10233;50.814;6.590;2023-08-30T00:03:12;7.33;;;4.93;;
20144;SDS011;10233;50.814;6.590;2023-08-30T00:04:12;6.63;;;4.57;;
20144;SDS011;10233;50.814;6.590;2023-08-30T00:05:13;7.27;;;4.77;;
20144;SDS011;10233;50.814;6.590;2023-08-30T00:06:14;7.65;;;5.03;;
20144;SDS011;10233;50.814;6.590;2023-08-30T00:07:15;7.07;;;4.70;;
20144;SDS011;10233;50.814;6.590;2023-08-30T00:08:16;9.87;;;4.60;;
20144;SDS011;10233;50.814;6.590;2023-08-30T00:09:19;7.38;;;4.88;;
20144;SDS011;10233;50.814;6.590;2023-08-30T00:10:20;7.23;;;4.80;;
20144;SDS011;10233;50.814;6.590;2023-08-30T00:11:20;7.53;;;4.40;;
20144;SDS011;10233;50.814;6.590;2023-08-30T00:12:21;7.63;;;4.78;;
20144;SDS011;10233;50.814;6.590;2023-08-30T00:13:21;7.70;;;4.90;;
20144;SDS011;10233;50.814;6.590;2023-08-30T00:14:22;8.68;;;5.20;;
20144;SDS011;10233;50.814;6.590;2023-08-30T00:15:22;8.43;;;5.20;;
20144;SDS011;10233;50.814;6.590;2023-08-30T00:16:23;8.77;;;5.60;;
20144;SDS011;10233;50.814;6.590;2023-08-30T00:17:23;6.82;;;5.40;;
20144;SDS011;10233;50.814;6.590;2023-08-30T00:18:24;9.60;;;5.90;;
20144;SDS011;10233;50.814;6.590;2023-08-30T00:19:24;8.85;;;5.55;;
20144;SDS011;10233;50.814;6.590;2023-08-30T00:20:24;7.67;;;5.60;;
20144;SDS011;10233;50.814;6.590;2023-08-30T00:21:25;9.47;;;6.30;;
20144;SDS011;10233;50.814;6.590;2023-08-30T00:22:27;7.80;;;5.50;;
20144;SDS011;10233;50.814;6.590;2023-08-30T00:23:27;8.27;;;6.07;;
20144;SDS011;10233;50.814;6.590;2023-08-30T00:24:28;7.47;;;5.60;;
20144;SDS011;10233;50.814;6.590;2023-08-30T00:25:28;7.97;;;5.80;;
20144;SDS011;10233;50.814;6.590;2023-08-30T00:26:29;10.18;;;5.80;;
20144;SDS011;10233;50.814;6.590;2023-08-30T00:27:30;10.50;;;6.00;;
20144;SDS011;10233;50.814;6.590;2023-08-30T00:28:30;7.30;;;5.40;;
20144;SDS011;10233;50.814;6.590;2023-08-30T00:29:31;8.73;;;5.70;;
20144;SDS011;10233;50.814;6.590;2023-08-30T00:30:31;10.10;;;5.32;;
20144;SDS011;10233;50.814;6.590;2023-08-30T00:31:32;7.73;;;5.30;;
20144;SDS011;10233;50.814;6.590;2023-08-30T00:32:32;8.73;;;5.40;;
20144;SDS011;10233;50.814;6.590;2023-08-30T00:33:32;6.75;;;5.40;;
20144;SDS011;10233;50.814;6.590;2023-08-30T00:34:33;7.23;;;5.10;;
20144;SDS011;10233;50.814;6.590;2023-08-30T00:35:33;8.30;;;5.40;;
20144;SDS011;10233;50.814;6.590;2023-08-30T00:36:34;7.43;;;5.20;;
20144;SDS011;10233;50.814;6.590;2023-08-30T00:37:35;8.70;;;5.35;;
20144;SDS011;10233;50.814;6.590;2023-08-30T00:38:35;7.67;;;5.23;;
20144;SDS011;10233;50.814;6.590;2023-08-30T00:39:39;9.23;;;4.90;;
20144;SDS011;10233;50.814;6.590;2023-08-30T00:40:39;8.45;;;5.40;;
20144;SDS011;10233;50.814;6.590;2023-08-30T00:41:40;8.15;;;5.18;;
20144;SDS011;10233;50.814;6.590;2023-08-30T00:42:41;8.30;;;5.43;;
20144;SDS011;10233;50.814;6.590;2023-08-30T00:43:41;5.90;;;4.80;;
20144;SDS011;10233;50.814;6.590;2023-08-30T00:44:41;7.43;;;5.10;;
20144;SDS011;10233;50.814;6.590;2023-08-30T00:45:42;8.13;;;5.20;;
20144;SDS011;10233;50.814;6.590;2023-08-30T00:46:42;7.07;;;5.30;;
20144;SDS011;10233;50.814;6.590;2023-08-30T00:47:43;7.87;;;5.30;;
20144;SDS011;10233;50.814;6.590;2023-08-30T00:48:44;8.10;;;5.25;;
20144;SDS011;10233;50.814;6.590;2023-08-30T00:49:44;7.17;;;5.33;;
20144;SDS011;10233;50.814;6.590;2023-08-30T00:50:45;8.80;;;5.00;;
20144;SDS011;10233;50.814;6.590;2023-08-30T00:51:46;7.60;;;5.37;;
20144;SDS011;10233;50.814;6.590;2023-08-30T00:52:46;7.97;;;5.43;;
20144;SDS011;10233;50.814;6.590;2023-08-30T00:53:47;6.77;;;5.60;;
20144;SDS011;10233;50.814;6.590;2023-08-30T00:54:48;9.80;;;5.57;;
20144;SDS011;10233;50.814;6.590;2023-08-30T00:55:49;7.73;;;5.57;;
20144;SDS011;10233;50.814;6.590;2023-08-30T00:56:50;6.78;;;5.20;;
20144;SDS011;10233;50.814;6.590;2023-08-30T00:57:51;8.50;;;5.40;;
20144;SDS011;10233;50.814;6.590;2023-08-30T00:58:52;6.83;;;5.13;;
20144;SDS011;10233;50.814;6.590;2023-08-30T00:59:53;7.87;;;5.50;;
20144;SDS011;10233;50.814;6.590;2023-08-30T01:00:55;8.25;;;5.40;;
20144;SDS011;10233;50.814;6.590;2023-08-30T01:01:56;6.70;;;5.18;;
20144;SDS011;10233;50.814;6.590;2023-08-30T01:02:57;7.15;;;4.90;;
20144;SDS011;10233;50.814;6.590;2023-08-30T01:03:58;6.90;;;5.03;;
20144;SDS011;10233;50.814;6.590;2023-08-30T01:04:58;7.87;;;5.10;;
20144;SDS011;10233;50.814;6.590;2023-08-30T01:05:59;8.77;;;5.53;;
20144;SDS011;10233;50.814;6.590;2023-08-30T01:07:00;6.97;;;5.00;;
20144;SDS011;10233;50.814;6.590;2023-08-30T01:08:00;8.05;;;5.28;;
20144;SDS011;10233;50.814;6.590;2023-08-30T01:09:02;6.68;;;5.28;;
20144;SDS011;10233;50.814;6.590;2023-08-30T01:10:03;7.88;;;5.28;;
20144;SDS011;10233;50.814;6.590;2023-08-30T01:12:15;7.90;;;5.40;;
20144;SDS011;10233;50.814;6.590;2023-08-30T01:13:19;9.33;;;5.83;;
20144;SDS011;10233;50.814;6.590;2023-08-30T01:14:21;9.00;;;5.20;;
20144;SDS011;10233;50.814;6.590;2023-08-30T01:15:25;6.95;;;5.10;;
20144;SDS011;10233;50.814;6.590;2023-08-30T01:16:27;6.78;;;5.40;;
20144;SDS011;10233;50.814;6.590;2023-08-30T01:17:28;8.77;;;5.50;;
20144;SDS011;10233;50.814;6.590;2023-08-30T01:18:32;7.55;;;5.28;;
20144;SDS011;10233;50.814;6.590;2023-08-30T01:20:58;8.57;;;5.53;;
20144;SDS011;10233;50.814;6.590;2023-08-30T01:23:47;8.75;;;5.53;;
20144;SDS011;10233;50.814;6.590;2023-08-30T01:25:00;6.53;;;5.40;;
20144;SDS011;10233;50.814;6.590;2023-08-30T01:27:38;6.68;;;5.28;;
20144;SDS011;10233;50.814;6.590;2023-08-30T01:28:39;7.72;;;5.38;;
20144;SDS011;10233;50.814;6.590;2023-08-30T01:29:42;8.38;;;5.82;;
20144;SDS011;10233;50.814;6.590;2023-08-30T01:30:45;11.75;;;5.35;;
20144;SDS011;10233;50.814;6.590;2023-08-30T01:31:47;10.10;;;5.40;;
20144;SDS011;10233;50.814;6.590;2023-08-30T01:32:49;8.82;;;5.25;;
20144;SDS011;10233;50.814;6.590;2023-08-30T01:33:50;7.63;;;5.30;;
20144;SDS011;10233;50.814;6.590;2023-08-30T01:34:51;6.88;;;5.32;;
20144;SDS011;10233;50.814;6.590;2023-08-30T01:35:56;10.32;;;5.82;;
20144;SDS011;10233;50.814;6.590;2023-08-30T01:36:59;6.53;;;5.13;;
20144;SDS011;10233;50.814;6.590;2023-08-30T01:38:01;7.03;;;5.25;;
20144;SDS011;10233;50.814;6.590;2023-08-30T01:39:08;8.65;;;5.25;;
20144;SDS011;10233;50.814;6.590;2023-08-30T01:40:11;9.30;;;5.13;;
20144;SDS011;10233;50.814;6.590;2023-08-30T01:41:14;7.78;;;5.28;;
20144;SDS011;10233;50.814;6.590;2023-08-30T01:42:15;9.93;;;5.70;;
20144;SDS011;10233;50.814;6.590;2023-08-30T01:43:21;9.13;;;5.75;;
20144;SDS011;10233;50.814;6.590;2023-08-30T01:44:23;7.13;;;5.28;;
20144;SDS011;10233;50.814;6.590;2023-08-30T01:45:23;6.87;;;5.23;;
20144;SDS011;10233;50.814;6.590;2023-08-30T01:46:24;6.75;;;5.50;;
20144;SDS011;10233;50.814;6.590;2023-08-30T01:47:26;7.85;;;5.43;;
20144;SDS011;10233;50.814;6.590;2023-08-30T01:48:29;6.97;;;5.32;;
20144;SDS011;10233;50.814;6.590;2023-08-30T01:49:31;7.80;;;4.90;;
20144;SDS011;10233;50.814;6.590;2023-08-30T01:50:32;8.25;;;5.55;;
20144;SDS011;10233;50.814;6.590;2023-08-30T01:51:34;8.55;;;5.45;;
20144;SDS011;10233;50.814;6.590;2023-08-30T01:52:36;10.13;;;5.75;;
20144;SDS011;10233;50.814;6.590;2023-08-30T01:53:38;6.43;;;4.93;;
20144;SDS011;10233;50.814;6.590;2023-08-30T01:54:38;7.35;;;5.35;;
20144;SDS011;10233;50.814;6.590;2023-08-30T01:55:41;7.45;;;5.15;;
20144;SDS011;10233;50.814;6.590;2023-08-30T01:56:43;8.88;;;5.32;;
20144;SDS011;10233;50.814;6.590;2023-08-30T01:57:43;9.23;;;5.40;;
20144;SDS011;10233;50.814;6.590;2023-08-30T01:58:44;6.90;;;5.40;;
20144;SDS011;10233;50.814;6.590;2023-08-30T01:59:45;6.18;;;4.97;;
20144;SDS011;10233;50.814;6.590;2023-08-30T02:00:45;10.30;;;5.63;;
20144;SDS011;10233;50.814;6.590;2023-08-30T02:01:46;9.88;;;5.80;;
20144;SDS011;10233;50.814;6.590;2023-08-30T02:02:47;8.63;;;5.77;;
20144;SDS011;10233;50.814;6.590;2023-08-30T02:03:48;8.27;;;5.70;;
20144;SDS011;10233;50.814;6.590;2023-08-30T02:04:48;7.10;;;5.43;;
20144;SDS011;10233;50.814;6.590;2023-08-30T02:05:57;6.83;;;5.20;;
20144;SDS011;10233;50.814;6.590;2023-08-30T02:07:05;10.32;;;5.85;;
20144;SDS011;10233;50.814;6.590;2023-08-30T02:08:16;7.90;;;5.70;;
20144;SDS011;10233;50.814;6.590;2023-08-30T02:09:18;8.90;;;5.63;;
20144;SDS011;10233;50.814;6.590;2023-08-30T02:10:48;9.27;;;5.30;;
20144;SDS011;10233;50.814;6.590;2023-08-30T02:11:51;8.68;;;5.57;;
20144;SDS011;10233;50.814;6.590;2023-08-30T02:12:54;10.32;;;5.53;;
20144;SDS011;10233;50.814;6.590;2023-08-30T02:13:58;7.00;;;5.57;;
20144;SDS011;10233;50.814;6.590;2023-08-30T02:15:00;7.93;;;5.50;;
20144;SDS011;10233;50.814;6.590;2023-08-30T02:16:02;7.22;;;5.20;;
20144;SDS011;10233;50.814;6.590;2023-08-30T02:17:03;9.48;;;5.50;;
20144;SDS011;10233;50.814;6.590;2023-08-30T02:18:06;6.65;;;5.03;;
20144;SDS011;10233;50.814;6.590;2023-08-30T02:19:07;8.07;;;5.38;;
20144;SDS011;10233;50.814;6.590;2023-08-30T02:20:08;8.73;;;5.30;;
20144;SDS011;10233;50.814;6.590;2023-08-30T02:21:09;7.50;;;5.40;;
20144;SDS011;10233;50.814;6.590;2023-08-30T02:22:10;8.70;;;5.67;;
20144;SDS011;10233;50.814;6.590;2023-08-30T02:23:11;7.43;;;5.03;;
20144;SDS011;10233;50.814;6.590;2023-08-30T02:24:11;8.32;;;5.28;;
20144;SDS011;10233;50.814;6.590;2023-08-30T02:25:12;9.20;;;6.00;;
20144;SDS011;10233;50.814;6.590;2023-08-30T02:26:12;9.30;;;5.30;;
20144;SDS011;10233;50.814;6.590;2023-08-30T02:27:14;7.78;;;5.20;;
20144;SDS011;10233;50.814;6.590;2023-08-30T02:28:14;6.60;;;5.15;;
20144;SDS011;10233;50.814;6.590;2023-08-30T02:29:15;8.30;;;5.40;;
20144;SDS011;10233;50.814;6.590;2023-08-30T02:30:15;8.27;;;5.60;;
20144;SDS011;10233;50.814;6.590;2023-08-30T02:31:17;10.02;;;5.28;;
20144;SDS011;10233;50.814;6.590;2023-08-30T02:32:19;6.43;;;5.13;;
20144;SDS011;10233;50.814;6.590;2023-08-30T02:33:22;9.45;;;5.03;;
20144;SDS011;10233;50.814;6.590;2023-08-30T02:34:22;7.07;;;5.10;;
20144;SDS011;10233;50.814;6.590;2023-08-30T02:35:23;8.10;;;5.47;;
20144;SDS011;10233;50.814;6.590;2023-08-30T02:36:23;7.47;;;4.95;;
20144;SDS011;10233;50.814;6.590;2023-08-30T02:37:23;8.20;;;5.40;;
20144;SDS011;10233;50.814;6.590;2023-08-30T02:38:24;8.73;;;5.10;;
20144;SDS011;10233;50.814;6.590;2023-08-30T02:39:25;7.63;;;5.17;;
20144;SDS011;10233;50.814;6.590;2023-08-30T02:40:25;12.43;;;5.80;;
20144;SDS011;10233;50.814;6.590;2023-08-30T02:41:25;9.47;;;5.50;;
20144;SDS011;10233;50.814;6.590;2023-08-30T02:42:26;8.03;;;5.60;;
20144;SDS011;10233;50.814;6.590;2023-08-30T02:43:28;7.78;;;5.55;;
20144;SDS011;10233;50.814;6.590;2023-08-30T02:44:28;9.00;;;5.70;;
20144;SDS011;10233;50.814;6.590;2023-08-30T02:45:29;8.30;;;5.78;;
20144;SDS011;10233;50.814;6.590;2023-08-30T02:46:29;9.63;;;5.70;;
20144;SDS011;10233;50.814;6.590;2023-08-30T02:47:30;9.55;;;5.47;;
20144;SDS011;10233;50.814;6.590;2023-08-30T02:48:31;10.13;;;5.90;;
20144;SDS011;10233;50.814;6.590;2023-08-30T02:49:32;8.35;;;5.90;;
20144;SDS011;10233;50.814;6.590;2023-08-30T02:50:32;10.27;;;5.70;;
20144;SDS011;10233;50.814;6.590;2023-08-30T02:51:33;7.43;;;5.72;;
20144;SDS011;10233;50.814;6.590;2023-08-30T02:52:34;9.45;;;5.95;;
20144;SDS011;10233;50.814;6.590;2023-08-30T02:53:34;8.77;;;5.73;;
20144;SDS011;10233;50.814;6.590;2023-08-30T02:54:35;9.40;;;6.10;;
20144;SDS011;10233;50.814;6.590;2023-08-30T02:55:35;8.63;;;5.78;;
20144;SDS011;10233;50.814;6.590;2023-08-30T02:56:36;9.47;;;6.27;;
20144;SDS011;10233;50.814;6.590;2023-08-30T02:57:36;9.60;;;6.30;;
20144;SDS011;10233;50.814;6.590;2023-08-30T02:58:37;10.00;;;5.77;;
20144;SDS011;10233;50.814;6.590;2023-08-30T02:59:37;8.73;;;6.05;;
20144;SDS011;10233;50.814;6.590;2023-08-30T03:00:40;10.48;;;6.20;;
20144;SDS011;10233;50.814;6.590;2023-08-30T03:01:42;9.07;;;5.85;;
20144;SDS011;10233;50.814;6.590;2023-08-30T03:02:44;9.07;;;6.53;;
20144;SDS011;10233;50.814;6.590;2023-08-30T03:03:45;8.07;;;5.95;;
20144;SDS011;10233;50.814;6.590;2023-08-30T03:04:46;8.75;;;5.90;;
20144;SDS011;10233;50.814;6.590;2023-08-30T03:05:47;11.13;;;6.83;;
20144;SDS011;10233;50.814;6.590;2023-08-30T03:06:48;9.02;;;6.00;;
20144;SDS011;10233;50.814;6.590;2023-08-30T03:07:49;7.60;;;5.90;;
20144;SDS011;10233;50.814;6.590;2023-08-30T03:08:53;9.50;;;5.63;;
20144;SDS011;10233;50.814;6.590;2023-08-30T03:09:53;8.57;;;5.97;;
20144;SDS011;10233;50.814;6.590;2023-08-30T03:10:54;7.93;;;5.70;;
20144;SDS011;10233;50.814;6.590;2023-08-30T03:11:54;8.03;;;5.83;;
20144;SDS011;10233;50.814;6.590;2023-08-30T03:12:55;9.60;;;5.85;;
20144;SDS011;10233;50.814;6.590;2023-08-30T03:13:56;8.88;;;5.70;;
20144;SDS011;10233;50.814;6.590;2023-08-30T03:14:56;7.10;;;5.43;;
20144;SDS011;10233;50.814;6.590;2023-08-30T03:15:57;9.50;;;5.93;;
20144;SDS011;10233;50.814;6.590;2023-08-30T03:16:58;9.50;;;5.70;;
20144;SDS011;10233;50.814;6.590;2023-08-30T03:18:00;9.90;;;5.88;;
20144;SDS011;10233;50.814;6.590;2023-08-30T03:19:01;10.45;;;5.55;;
20144;SDS011;10233;50.814;6.590;2023-08-30T03:20:04;10.43;;;6.15;;
20144;SDS011;10233;50.814;6.590;2023-08-30T03:21:05;9.00;;;5.75;;
20144;SDS011;10233;50.814;6.590;2023-08-30T03:22:07;8.50;;;5.80;;
20144;SDS011;10233;50.814;6.590;2023-08-30T03:23:07;10.00;;;5.95;;
20144;SDS011;10233;50.814;6.590;2023-08-30T03:24:09;8.52;;;6.18;;
20144;SDS011;10233;50.814;6.590;2023-08-30T03:25:10;10.45;;;6.43;;
20144;SDS011;10233;50.814;6.590;2023-08-30T03:26:14;8.80;;;5.97;;
20144;SDS011;10233;50.814;6.590;2023-08-30T03:27:15;9.32;;;6.03;;
20144;SDS011;10233;50.814;6.590;2023-08-30T03:28:16;9.20;;;6.30;;
20144;SDS011;10233;50.814;6.590;2023-08-30T03:29:17;9.18;;;5.95;;
20144;SDS011;10233;50.814;6.590;2023-08-30T03:30:17;8.77;;;6.33;;
20144;SDS011;10233;50.814;6.590;2023-08-30T03:31:18;8.53;;;6.23;;
20144;SDS011;10233;50.814;6.590;2023-08-30T03:32:20;9.77;;;6.28;;
20144;SDS011;10233;50.814;6.590;2023-08-30T03:33:22;9.50;;;6.80;;
20144;SDS011;10233;50.814;6.590;2023-08-30T03:34:23;9.47;;;6.27;;
20144;SDS011;10233;50.814;6.590;2023-08-30T03:35:23;8.30;;;6.18;;
20144;SDS011;10233;50.814;6.590;2023-08-30T03:36:24;9.05;;;6.45;;
20144;SDS011;10233;50.814;6.590;2023-08-30T03:37:27;9.93;;;6.70;;
20144;SDS011;10233;50.814;6.590;2023-08-30T03:38:27;9.07;;;6.82;;
20144;SDS011;10233;50.814;6.590;2023-08-30T03:39:28;10.23;;;6.00;;
20144;SDS011;10233;50.814;6.590;2023-08-30T03:40:29;9.00;;;6.47;;
20144;SDS011;10233;50.814;6.590;2023-08-30T03:41:30;10.85;;;6.45;;
20144;SDS011;10233;50.814;6.590;2023-08-30T03:42:31;9.23;;;6.20;;
20144;SDS011;10233;50.814;6.590;2023-08-30T03:43:31;9.40;;;6.37;;
20144;SDS011;10233;50.814;6.590;2023-08-30T03:44:37;9.27;;;6.10;;
20144;SDS011;10233;50.814;6.590;2023-08-30T03:45:37;10.32;;;6.53;;
20144;SDS011;10233;50.814;6.590;2023-08-30T03:46:38;8.53;;;6.43;;
20144;SDS011;10233;50.814;6.590;2023-08-30T03:47:38;8.83;;;6.17;;
20144;SDS011;10233;50.814;6.590;2023-08-30T03:48:40;10.60;;;6.55;;
20144;SDS011;10233;50.814;6.590;2023-08-30T03:49:40;9.98;;;6.53;;
20144;SDS011;10233;50.814;6.590;2023-08-30T03:50:42;9.60;;;6.72;;
20144;SDS011;10233;50.814;6.590;2023-08-30T03:51:42;9.80;;;6.30;;
20144;SDS011;10233;50.814;6.590;2023-08-30T03:52:43;8.75;;;6.22;;
20144;SDS011;10233;50.814;6.590;2023-08-30T03:53:43;10.37;;;6.57;;
20144;SDS011;10233;50.814;6.590;2023-08-30T03:54:44;8.40;;;6.20;;
20144;SDS011;10233;50.814;6.590;2023-08-30T03:55:44;8.85;;;6.43;;
20144;SDS011;10233;50.814;6.590;2023-08-30T03:56:45;9.30;;;6.43;;
20144;SDS011;10233;50.814;6.590;2023-08-30T03:57:46;11.30;;;6.32;;
20144;SDS011;10233;50.814;6.590;2023-08-30T03:58:46;8.83;;;6.33;;
20144;SDS011;10233;50.814;6.590;2023-08-30T03:59:47;9.25;;;6.45;;
20144;SDS011;10233;50.814;6.590;2023-08-30T04:00:47;9.97;;;6.50;;
20144;SDS011;10233;50.814;6.590;2023-08-30T04:01:48;10.48;;;6.40;;
20144;SDS011;10233;50.814;6.590;2023-08-30T04:02:49;7.90;;;5.88;;
20144;SDS011;10233;50.814;6.590;2023-08-30T04:03:50;10.10;;;6.30;;
20144;SDS011;10233;50.814;6.590;2023-08-30T04:04:50;9.95;;;5.85;;
20144;SDS011;10233;50.814;6.590;2023-08-30T04:05:54;10.07;;;6.90;;
20144;SDS011;10233;50.814;6.590;2023-08-30T04:06:56;8.93;;;6.38;;
20144;SDS011;10233;50.814;6.590;2023-08-30T04:07:57;9.17;;;5.90;;
20144;SDS011;10233;50.814;6.590;2023-08-30T04:08:57;9.80;;;6.45;;
20144;SDS011;10233;50.814;6.590;2023-08-30T04:09:58;10.30;;;6.77;;
20144;SDS011;10233;50.814;6.590;2023-08-30T04:10:59;8.57;;;6.47;;
20144;SDS011;10233;50.814;6.590;2023-08-30T04:12:00;8.60;;;5.73;;
20144;SDS011;10233;50.814;6.590;2023-08-30T04:13:00;9.95;;;6.80;;
20144;SDS011;10233;50.814;6.590;2023-08-30T04:14:01;10.20;;;6.67;;
20144;SDS011;10233;50.814;6.590;2023-08-30T04:15:02;8.75;;;5.97;;
20144;SDS011;10233;50.814;6.590;2023-08-30T04:16:03;9.07;;;6.28;;
20144;SDS011;10233;50.814;6.590;2023-08-30T04:17:04;9.27;;;6.40;;
20144;SDS011;10233;50.814;6.590;2023-08-30T04:18:05;9.73;;;6.33;;
20144;SDS011;10233;50.814;6.590;2023-08-30T04:19:06;8.88;;;5.90;;
20144;SDS011;10233;50.814;6.590;2023-08-30T04:20:07;10.18;;;6.30;;
20144;SDS011;10233;50.814;6.590;2023-08-30T04:21:09;11.45;;;7.28;;
20144;SDS011;10233;50.814;6.590;2023-08-30T04:22:09;11.83;;;6.30;;
20144;SDS011;10233;50.814;6.590;2023-08-30T04:23:10;10.60;;;6.68;;
20144;SDS011;10233;50.814;6.590;2023-08-30T04:24:10;8.13;;;6.10;;
20144;SDS011;10233;50.814;6.590;2023-08-30T04:25:12;9.52;;;6.38;;
20144;SDS011;10233;50.814;6.590;2023-08-30T04:26:12;8.87;;;6.17;;
20144;SDS011;10233;50.814;6.590;2023-08-30T04:27:13;8.63;;;5.40;;
20144;SDS011;10233;50.814;6.590;2023-08-30T04:28:13;8.20;;;6.20;;
20144;SDS011;10233;50.814;6.590;2023-08-30T04:29:14;10.37;;;6.10;;
20144;SDS011;10233;50.814;6.590;2023-08-30T04:30:15;8.93;;;5.65;;
20144;SDS011;10233;50.814;6.590;2023-08-30T04:31:16;8.40;;;6.18;;
20144;SDS011;10233;50.814;6.590;2023-08-30T04:32:17;8.27;;;5.90;;
20144;SDS011;10233;50.814;6.590;2023-08-30T04:33:17;8.98;;;6.10;;
20144;SDS011;10233;50.814;6.590;2023-08-30T04:34:18;10.50;;;6.35;;
20144;SDS011;10233;50.814;6.590;2023-08-30T04:35:20;9.10;;;6.15;;
20144;SDS011;10233;50.814;6.590;2023-08-30T04:36:20;9.20;;;6.23;;
20144;SDS011;10233;50.814;6.590;2023-08-30T04:37:21;8.55;;;5.80;;
20144;SDS011;10233;50.814;6.590;2023-08-30T04:38:21;8.52;;;6.30;;
20144;SDS011;10233;50.814;6.590;2023-08-30T04:39:22;9.97;;;6.40;;
20144;SDS011;10233;50.814;6.590;2023-08-30T04:40:23;11.68;;;6.47;;
20144;SDS011;10233;50.814;6.590;2023-08-30T04:41:24;8.65;;;5.68;;
20144;SDS011;10233;50.814;6.590;2023-08-30T04:42:24;8.57;;;6.00;;
20144;SDS011;10233;50.814;6.590;2023-08-30T04:43:25;10.18;;;6.22;;
20144;SDS011;10233;50.814;6.590;2023-08-30T04:44:26;9.15;;;5.70;;
20144;SDS011;10233;50.814;6.590;2023-08-30T04:45:27;8.52;;;6.15;;
20144;SDS011;10233;50.814;6.590;2023-08-30T04:46:28;8.63;;;6.05;;
20144;SDS011;10233;50.814;6.590;2023-08-30T04:47:29;9.03;;;6.13;;
20144;SDS011;10233;50.814;6.590;2023-08-30T04:48:30;8.45;;;5.72;;
20144;SDS011;10233;50.814;6.590;2023-08-30T04:49:32;8.73;;;5.85;;
20144;SDS011;10233;50.814;6.590;2023-08-30T04:50:33;9.20;;;6.03;;
20144;SDS011;10233;50.814;6.590;2023-08-30T04:51:34;10.05;;;6.22;;
20144;SDS011;10233;50.814;6.590;2023-08-30T04:52:34;8.60;;;5.80;;
20144;SDS011;10233;50.814;6.590;2023-08-30T04:53:35;10.10;;;5.83;;
20144;SDS011;10233;50.814;6.590;2023-08-30T04:54:35;7.37;;;5.47;;
20144;SDS011;10233;50.814;6.590;2023-08-30T04:55:36;9.77;;;5.60;;
20144;SDS011;10233;50.814;6.590;2023-08-30T04:56:37;8.50;;;5.38;;
20144;SDS011;10233;50.814;6.590;2023-08-30T04:57:38;10.27;;;5.90;;
20144;SDS011;10233;50.814;6.590;2023-08-30T04:58:38;7.82;;;5.85;;
20144;SDS011;10233;50.814;6.590;2023-08-30T04:59:42;9.13;;;6.03;;
20144;SDS011;10233;50.814;6.590;2023-08-30T05:00:44;9.10;;;5.97;;
20144;SDS011;10233;50.814;6.590;2023-08-30T05:01:45;10.05;;;5.60;;
20144;SDS011;10233;50.814;6.590;2023-08-30T05:02:46;7.63;;;5.72;;
20144;SDS011;10233;50.814;6.590;2023-08-30T05:03:48;8.68;;;5.70;;
20144;SDS011;10233;50.814;6.590;2023-08-30T05:04:49;8.93;;;5.75;;
20144;SDS011;10233;50.814;6.590;2023-08-30T05:05:50;9.77;;;5.85;;
20144;SDS011;10233;50.814;6.590;2023-08-30T05:06:51;9.82;;;6.15;;
20144;SDS011;10233;50.814;6.590;2023-08-30T05:07:52;11.30;;;6.43;;
20144;SDS011;10233;50.814;6.590;2023-08-30T05:08:52;10.18;;;7.00;;
20144;SDS011;10233;50.814;6.590;2023-08-30T05:09:53;9.27;;;6.87;;
20144;SDS011;10233;50.814;6.590;2023-08-30T05:10:54;10.60;;;6.47;;
20144;SDS011;10233;50.814;6.590;2023-08-30T05:11:55;9.07;;;6.43;;
20144;SDS011;10233;50.814;6.590;2023-08-30T05:12:56;8.60;;;6.10;;
20144;SDS011;10233;50.814;6.590;2023-08-30T05:13:56;9.57;;;6.45;;
20144;SDS011;10233;50.814;6.590;2023-08-30T05:14:57;10.50;;;6.43;;
20144;SDS011;10233;50.814;6.590;2023-08-30T05:15:59;9.82;;;6.30;;
20144;SDS011;10233;50.814;6.590;2023-08-30T05:17:00;12.27;;;6.50;;
20144;SDS011;10233;50.814;6.590;2023-08-30T05:18:00;12.20;;;6.65;;
20144;SDS011;10233;50.814;6.590;2023-08-30T05:19:01;9.93;;;6.50;;
20144;SDS011;10233;50.814;6.590;2023-08-30T05:20:01;8.73;;;6.10;;
20144;SDS011;10233;50.814;6.590;2023-08-30T05:21:03;8.63;;;6.13;;
20144;SDS011;10233;50.814;6.590;2023-08-30T05:22:04;9.63;;;6.43;;
20144;SDS011;10233;50.814;6.590;2023-08-30T05:23:05;9.00;;;6.03;;
20144;SDS011;10233;50.814;6.590;2023-08-30T05:24:05;10.67;;;6.60;;
20144;SDS011;10233;50.814;6.590;2023-08-30T05:25:07;9.95;;;6.30;;
20144;SDS011;10233;50.814;6.590;2023-08-30T05:26:09;9.37;;;6.50;;
20144;SDS011;10233;50.814;6.590;2023-08-30T05:27:10;9.73;;;6.40;;
20144;SDS011;10233;50.814;6.590;2023-08-30T05:28:14;8.55;;;6.00;;
20144;SDS011;10233;50.814;6.590;2023-08-30T05:29:14;10.27;;;6.65;;
20144;SDS011;10233;50.814;6.590;2023-08-30T05:30:15;9.10;;;6.43;;
20144;SDS011;10233;50.814;6.590;2023-08-30T05:31:16;9.77;;;6.50;;
20144;SDS011;10233;50.814;6.590;2023-08-30T05:32:33;9.13;;;6.07;;
20144;SDS011;10233;50.814;6.590;2023-08-30T05:33:48;10.97;;;6.37;;
20144;SDS011;10233;50.814;6.590;2023-08-30T05:35:09;9.52;;;5.95;;
20144;SDS011;10233;50.814;6.590;2023-08-30T05:36:39;9.63;;;6.25;;
20144;SDS011;10233;50.814;6.590;2023-08-30T05:38:00;8.18;;;6.00;;
20144;SDS011;10233;50.814;6.590;2023-08-30T05:39:12;8.57;;;6.18;;
20144;SDS011;10233;50.814;6.590;2023-08-30T05:40:19;8.65;;;6.30;;
20144;SDS011;10233;50.814;6.590;2023-08-30T05:41:20;9.47;;;5.70;;
20144;SDS011;10233;50.814;6.590;2023-08-30T05:42:20;8.57;;;6.15;;
20144;SDS011;10233;50.814;6.590;2023-08-30T05:43:22;8.88;;;6.00;;
20144;SDS011;10233;50.814;6.590;2023-08-30T05:44:22;8.18;;;5.85;;
20144;SDS011;10233;50.814;6.590;2023-08-30T05:45:23;8.87;;;6.00;;
20144;SDS011;10233;50.814;6.590;2023-08-30T05:46:23;9.25;;;5.47;;
20144;SDS011;10233;50.814;6.590;2023-08-30T05:47:24;8.83;;;6.10;;
20144;SDS011;10233;50.814;6.590;2023-08-30T05:48:24;10.77;;;5.70;;
20144;SDS011;10233;50.814;6.590;2023-08-30T05:49:26;8.50;;;5.75;;
20144;SDS011;10233;50.814;6.590;2023-08-30T05:50:26;7.70;;;5.68;;
20144;SDS011;10233;50.814;6.590;2023-08-30T05:51:27;7.77;;;5.70;;
20144;SDS011;10233;50.814;6.590;2023-08-30T05:52:28;8.10;;;5.78;;
20144;SDS011;10233;50.814;6.590;2023-08-30T05:53:28;8.60;;;5.67;;
20144;SDS011;10233;50.814;6.590;2023-08-30T05:54:28;8.30;;;5.67;;
20144;SDS011;10233;50.814;6.590;2023-08-30T05:55:31;9.05;;;5.93;;
20144;SDS011;10233;50.814;6.590;2023-08-30T05:56:32;9.93;;;6.03;;
20144;SDS011;10233;50.814;6.590;2023-08-30T05:57:33;7.80;;;5.18;;
20144;SDS011;10233;50.814;6.590;2023-08-30T05:58:34;7.77;;;5.27;;
20144;SDS011;10233;50.814;6.590;2023-08-30T05:59:35;7.85;;;5.25;;
20144;SDS011;10233;50.814;6.590;2023-08-30T06:00:36;7.10;;;5.23;;
20144;SDS011;10233;50.814;6.590;2023-08-30T06:01:37;8.40;;;5.38;;
20144;SDS011;10233;50.814;6.590;2023-08-30T06:02:37;7.93;;;5.30;;
20144;SDS011;10233;50.814;6.590;2023-08-30T06:03:37;6.82;;;5.30;;
20144;SDS011;10233;50.814;6.590;2023-08-30T06:04:38;8.53;;;5.53;;
20144;SDS011;10233;50.814;6.590;2023-08-30T06:05:38;8.57;;;5.93;;
20144;SDS011;10233;50.814;6.590;2023-08-30T06:06:39;8.85;;;5.90;;
20144;SDS011;10233;50.814;6.590;2023-08-30T06:07:39;7.70;;;5.67;;
20144;SDS011;10233;50.814;6.590;2023-08-30T06:08:40;9.18;;;5.55;;
20144;SDS011;10233;50.814;6.590;2023-08-30T06:09:40;7.70;;;5.10;;
20144;SDS011;10233;50.814;6.590;2023-08-30T06:10:41;8.50;;;5.50;;
20144;SDS011;10233;50.814;6.590;2023-08-30T06:11:41;13.45;;;5.95;;
20144;SDS011;10233;50.814;6.590;2023-08-30T06:12:41;9.80;;;5.53;;
20144;SDS011;10233;50.814;6.590;2023-08-30T06:13:42;10.37;;;5.53;;
20144;SDS011;10233;50.814;6.590;2023-08-30T06:14:43;8.65;;;5.72;;
20144;SDS011;10233;50.814;6.590;2023-08-30T06:15:50;8.10;;;5.78;;